sensor_id;sensor_type;location;lat;lon;timestamp;P1;durP1;ratioP1;P2;durP2;ratioP2
64678;SDS011;51094;53.864;27.676;2023-08-30T00:01:16;2.10;;;2.10;;
64678;SDS011;51094;53.864;27.676;2023-08-30T00:03:43;2.00;;;2.00;;
64678;SDS011;51094;53.864;27.676;2023-08-30T00:06:10;1.98;;;1.98;;
64678;SDS011;51094;53.864;27.676;2023-08-30T00:08:37;1.70;;;1.70;;
64678;SDS011;51094;53.864;27.676;2023-08-30T00:11:04;2.20;;;2.20;;
64678;SDS011;51094;53.864;27.676;2023-08-30T00:13:31;2.20;;;2.20;;
64678;SDS011;51094;53.864;27.676;2023-08-30T00:16:00;2.10;;;2.10;;
64678;SDS011;51094;53.864;27.676;2023-08-30T00:18:29;2.20;;;2.20;;
64678;SDS011;51094;53.864;27.676;2023-08-30T00:20:57;2.45;;;2.40;;
64678;SDS011;51094;53.864;27.676;2023-08-30T00:23:25;2.20;;;2.20;;
64678;SDS011;51094;53.864;27.676;2023-08-30T00:25:51;2.30;;;2.30;;
64678;SDS011;51094;53.864;27.676;2023-08-30T00:28:18;2.40;;;2.40;;
64678;SDS011;51094;53.864;27.676;2023-08-30T00:30:46;2.38;;;2.38;;
64678;SDS011;51094;53.864;27.676;2023-08-30T00:33:13;2.45;;;2.45;;
64678;SDS011;51094;53.864;27.676;2023-08-30T00:35:40;2.50;;;2.40;;
64678;SDS011;51094;53.864;27.676;2023-08-30T00:38:07;2.40;;;2.40;;
64678;SDS011;51094;53.864;27.676;2023-08-30T00:40:40;2.47;;;2.47;;
64678;SDS011;51094;53.864;27.676;2023-08-30T00:43:09;2.50;;;2.50;;
64678;SDS011;51094;53.864;27.676;2023-08-30T00:45:37;2.58;;;2.58;;
64678;SDS011;51094;53.864;27.676;2023-08-30T00:48:06;2.50;;;2.50;;
64678;SDS011;51094;53.864;27.676;2023-08-30T00:50:35;2.60;;;2.60;;
64678;SDS011;51094;53.864;27.676;2023-08-30T00:53:03;2.40;;;2.40;;
64678;SDS011;51094;53.864;27.676;2023-08-30T00:55:33;2.58;;;2.58;;
64678;SDS011;51094;53.864;27.676;2023-08-30T00:58:01;2.40;;;2.40;;
64678;SDS011;51094;53.864;27.676;2023-08-30T01:00:29;2.70;;;2.70;;
64678;SDS011;51094;53.864;27.676;2023-08-30T01:02:57;2.70;;;2.70;;
64678;SDS011;51094;53.864;27.676;2023-08-30T01:05:26;2.60;;;2.60;;
64678;SDS011;51094;53.864;27.676;2023-08-30T01:07:54;2.55;;;2.55;;
64678;SDS011;51094;53.864;27.676;2023-08-30T01:10:22;2.72;;;2.72;;
64678;SDS011;51094;53.864;27.676;2023-08-30T01:13:18;2.53;;;2.53;;
64678;SDS011;51094;53.864;27.676;2023-08-30T01:15:47;2.50;;;2.50;;
64678;SDS011;51094;53.864;27.676;2023-08-30T01:18:17;2.80;;;2.80;;
64678;SDS011;51094;53.864;27.676;2023-08-30T01:20:46;2.75;;;2.75;;
64678;SDS011;51094;53.864;27.676;2023-08-30T01:28:44;3.00;;;2.97;;
64678;SDS011;51094;53.864;27.676;2023-08-30T01:31:13;2.70;;;2.70;;
64678;SDS011;51094;53.864;27.676;2023-08-30T01:33:41;2.90;;;2.90;;
64678;SDS011;51094;53.864;27.676;2023-08-30T01:36:09;3.00;;;3.00;;
64678;SDS011;51094;53.864;27.676;2023-08-30T01:38:36;2.80;;;2.80;;
64678;SDS011;51094;53.864;27.676;2023-08-30T01:41:05;2.90;;;2.90;;
64678;SDS011;51094;53.864;27.676;2023-08-30T01:43:32;2.90;;;2.90;;
64678;SDS011;51094;53.864;27.676;2023-08-30T01:46:03;3.10;;;3.10;;
64678;SDS011;51094;53.864;27.676;2023-08-30T01:48:31;2.90;;;2.90;;
64678;SDS011;51094;53.864;27.676;2023-08-30T01:51:01;2.95;;;2.95;;
64678;SDS011;51094;53.864;27.676;2023-08-30T01:53:29;3.00;;;3.00;;
64678;SDS011;51094;53.864;27.676;2023-08-30T01:55:57;3.00;;;3.00;;
64678;SDS011;51094;53.864;27.676;2023-08-30T01:58:24;2.80;;;2.80;;
64678;SDS011;51094;53.864;27.676;2023-08-30T02:00:51;3.00;;;3.00;;
64678;SDS011;51094;53.864;27.676;2023-08-30T02:03:19;3.10;;;3.10;;
64678;SDS011;51094;53.864;27.676;2023-08-30T02:06:07;3.00;;;2.97;;
64678;SDS011;51094;53.864;27.676;2023-08-30T02:08:48;3.15;;;3.15;;
64678;SDS011;51094;53.864;27.676;2023-08-30T02:11:26;3.08;;;3.08;;
64678;SDS011;51094;53.864;27.676;2023-08-30T02:13:54;3.05;;;3.00;;
64678;SDS011;51094;53.864;27.676;2023-08-30T02:16:25;3.30;;;3.30;;
64678;SDS011;51094;53.864;27.676;2023-08-30T02:18:54;3.10;;;3.10;;
64678;SDS011;51094;53.864;27.676;2023-08-30T02:21:21;3.30;;;3.30;;
64678;SDS011;51094;53.864;27.676;2023-08-30T02:23:52;3.17;;;3.17;;
64678;SDS011;51094;53.864;27.676;2023-08-30T02:28:46;3.40;;;3.33;;
64678;SDS011;51094;53.864;27.676;2023-08-30T02:31:13;3.10;;;3.10;;
64678;SDS011;51094;53.864;27.676;2023-08-30T02:33:40;3.42;;;3.42;;
64678;SDS011;51094;53.864;27.676;2023-08-30T02:36:07;3.15;;;3.15;;
64678;SDS011;51094;53.864;27.676;2023-08-30T02:38:34;3.58;;;3.47;;
64678;SDS011;51094;53.864;27.676;2023-08-30T02:41:01;3.70;;;3.60;;
64678;SDS011;51094;53.864;27.676;2023-08-30T02:43:28;3.70;;;3.60;;
64678;SDS011;51094;53.864;27.676;2023-08-30T02:45:55;3.38;;;3.28;;
64678;SDS011;51094;53.864;27.676;2023-08-30T02:48:21;3.95;;;3.85;;
64678;SDS011;51094;53.864;27.676;2023-08-30T02:50:49;3.60;;;3.50;;
64678;SDS011;51094;53.864;27.676;2023-08-30T02:53:16;3.70;;;3.60;;
64678;SDS011;51094;53.864;27.676;2023-08-30T02:55:42;3.80;;;3.70;;
64678;SDS011;51094;53.864;27.676;2023-08-30T02:58:09;3.47;;;3.38;;
64678;SDS011;51094;53.864;27.676;2023-08-30T03:00:37;3.30;;;3.22;;
64678;SDS011;51094;53.864;27.676;2023-08-30T03:03:06;3.75;;;3.67;;
64678;SDS011;51094;53.864;27.676;2023-08-30T03:05:33;3.33;;;3.33;;
64678;SDS011;51094;53.864;27.676;2023-08-30T03:08:02;3.30;;;3.30;;
64678;SDS011;51094;53.864;27.676;2023-08-30T03:10:30;3.35;;;3.35;;
64678;SDS011;51094;53.864;27.676;2023-08-30T03:12:56;3.50;;;3.50;;
64678;SDS011;51094;53.864;27.676;2023-08-30T03:15:24;3.40;;;3.40;;
64678;SDS011;51094;53.864;27.676;2023-08-30T03:17:51;3.53;;;3.50;;
64678;SDS011;51094;53.864;27.676;2023-08-30T03:20:18;3.30;;;3.20;;
64678;SDS011;51094;53.864;27.676;2023-08-30T03:22:45;3.65;;;3.65;;
64678;SDS011;51094;53.864;27.676;2023-08-30T03:25:13;3.58;;;3.47;;
64678;SDS011;51094;53.864;27.676;2023-08-30T03:27:39;3.78;;;3.67;;
64678;SDS011;51094;53.864;27.676;2023-08-30T03:30:07;3.80;;;3.80;;
64678;SDS011;51094;53.864;27.676;2023-08-30T03:32:34;4.00;;;4.00;;
64678;SDS011;51094;53.864;27.676;2023-08-30T03:35:01;3.88;;;3.88;;
64678;SDS011;51094;53.864;27.676;2023-08-30T03:37:31;3.67;;;3.67;;
64678;SDS011;51094;53.864;27.676;2023-08-30T03:39:58;3.67;;;3.67;;
64678;SDS011;51094;53.864;27.676;2023-08-30T03:42:25;3.50;;;3.50;;
64678;SDS011;51094;53.864;27.676;2023-08-30T03:44:52;3.67;;;3.67;;
64678;SDS011;51094;53.864;27.676;2023-08-30T03:47:19;3.60;;;3.60;;
64678;SDS011;51094;53.864;27.676;2023-08-30T03:49:45;4.00;;;3.90;;
64678;SDS011;51094;53.864;27.676;2023-08-30T03:52:12;4.22;;;4.13;;
64678;SDS011;51094;53.864;27.676;2023-08-30T03:54:40;3.70;;;3.70;;
64678;SDS011;51094;53.864;27.676;2023-08-30T03:57:07;3.60;;;3.60;;
64678;SDS011;51094;53.864;27.676;2023-08-30T03:59:33;4.00;;;4.00;;
64678;SDS011;51094;53.864;27.676;2023-08-30T04:02:00;3.75;;;3.75;;
64678;SDS011;51094;53.864;27.676;2023-08-30T04:04:28;3.80;;;3.80;;
64678;SDS011;51094;53.864;27.676;2023-08-30T04:06:54;3.88;;;3.88;;
64678;SDS011;51094;53.864;27.676;2023-08-30T04:09:21;3.97;;;3.97;;
64678;SDS011;51094;53.864;27.676;2023-08-30T04:11:48;3.95;;;3.92;;
64678;SDS011;51094;53.864;27.676;2023-08-30T04:14:15;4.22;;;4.13;;
64678;SDS011;51094;53.864;27.676;2023-08-30T04:16:42;3.83;;;3.83;;
64678;SDS011;51094;53.864;27.676;2023-08-30T04:19:09;4.60;;;4.50;;
64678;SDS011;51094;53.864;27.676;2023-08-30T04:21:35;4.50;;;4.40;;
64678;SDS011;51094;53.864;27.676;2023-08-30T04:24:02;4.32;;;4.32;;
64678;SDS011;51094;53.864;27.676;2023-08-30T04:26:30;4.60;;;4.50;;
64678;SDS011;51094;53.864;27.676;2023-08-30T04:28:57;4.40;;;4.30;;
64678;SDS011;51094;53.864;27.676;2023-08-30T04:31:24;4.18;;;4.18;;
64678;SDS011;51094;53.864;27.676;2023-08-30T04:33:52;4.50;;;4.45;;
64678;SDS011;51094;53.864;27.676;2023-08-30T04:38:48;4.60;;;4.53;;
64678;SDS011;51094;53.864;27.676;2023-08-30T04:41:28;4.72;;;4.63;;
64678;SDS011;51094;53.864;27.676;2023-08-30T04:43:55;4.70;;;4.60;;
64678;SDS011;51094;53.864;27.676;2023-08-30T04:46:22;4.68;;;4.57;;
64678;SDS011;51094;53.864;27.676;2023-08-30T04:48:49;4.88;;;4.78;;
64678;SDS011;51094;53.864;27.676;2023-08-30T04:51:15;4.57;;;4.57;;
64678;SDS011;51094;53.864;27.676;2023-08-30T04:53:42;5.00;;;4.90;;
64678;SDS011;51094;53.864;27.676;2023-08-30T04:56:11;4.82;;;4.82;;
64678;SDS011;51094;53.864;27.676;2023-08-30T04:58:39;4.80;;;4.70;;
64678;SDS011;51094;53.864;27.676;2023-08-30T05:03:37;4.97;;;4.88;;
64678;SDS011;51094;53.864;27.676;2023-08-30T05:06:05;5.07;;;4.97;;
64678;SDS011;51094;53.864;27.676;2023-08-30T05:08:32;5.10;;;5.00;;
64678;SDS011;51094;53.864;27.676;2023-08-30T05:10:59;5.25;;;5.15;;
64678;SDS011;51094;53.864;27.676;2023-08-30T05:13:26;5.05;;;4.95;;
64678;SDS011;51094;53.864;27.676;2023-08-30T05:15:53;5.40;;;5.30;;
64678;SDS011;51094;53.864;27.676;2023-08-30T05:18:20;5.22;;;5.13;;
64678;SDS011;51094;53.864;27.676;2023-08-30T05:20:46;5.10;;;5.00;;
64678;SDS011;51094;53.864;27.676;2023-08-30T05:23:15;5.07;;;5.00;;
64678;SDS011;51094;53.864;27.676;2023-08-30T05:25:42;5.28;;;5.18;;
64678;SDS011;51094;53.864;27.676;2023-08-30T05:28:09;5.43;;;5.32;;
64678;SDS011;51094;53.864;27.676;2023-08-30T05:30:36;5.53;;;5.43;;
64678;SDS011;51094;53.864;27.676;2023-08-30T05:33:12;5.60;;;5.50;;
64678;SDS011;51094;53.864;27.676;2023-08-30T05:36:09;5.80;;;5.70;;
64678;SDS011;51094;53.864;27.676;2023-08-30T05:41:36;5.75;;;5.65;;
64678;SDS011;51094;53.864;27.676;2023-08-30T05:44:03;5.72;;;5.63;;
64678;SDS011;51094;53.864;27.676;2023-08-30T05:46:31;5.90;;;5.80;;
64678;SDS011;51094;53.864;27.676;2023-08-30T05:48:58;5.78;;;5.68;;
64678;SDS011;51094;53.864;27.676;2023-08-30T05:51:28;5.80;;;5.70;;
64678;SDS011;51094;53.864;27.676;2023-08-30T05:53:56;6.00;;;5.80;;
64678;SDS011;51094;53.864;27.676;2023-08-30T05:56:22;5.82;;;5.72;;
64678;SDS011;51094;53.864;27.676;2023-08-30T05:58:50;5.80;;;5.70;;
64678;SDS011;51094;53.864;27.676;2023-08-30T06:01:17;5.65;;;5.55;;
64678;SDS011;51094;53.864;27.676;2023-08-30T06:03:45;5.77;;;5.67;;
64678;SDS011;51094;53.864;27.676;2023-08-30T06:06:13;6.30;;;6.20;;
64678;SDS011;51094;53.864;27.676;2023-08-30T06:08:40;5.68;;;5.57;;
64678;SDS011;51094;53.864;27.676;2023-08-30T06:11:07;5.90;;;5.80;;
64678;SDS011;51094;53.864;27.676;2023-08-30T06:13:34;6.10;;;6.00;;
64678;SDS011;51094;53.864;27.676;2023-08-30T06:16:01;6.13;;;6.03;;
64678;SDS011;51094;53.864;27.676;2023-08-30T06:18:30;5.95;;;5.85;;
64678;SDS011;51094;53.864;27.676;2023-08-30T06:23:25;5.95;;;5.85;;
64678;SDS011;51094;53.864;27.676;2023-08-30T06:25:55;5.80;;;5.70;;
64678;SDS011;51094;53.864;27.676;2023-08-30T06:28:23;5.97;;;5.88;;
64678;SDS011;51094;53.864;27.676;2023-08-30T06:30:50;5.97;;;5.88;;
64678;SDS011;51094;53.864;27.676;2023-08-30T06:33:17;6.30;;;6.20;;
64678;SDS011;51094;53.864;27.676;2023-08-30T06:35:44;6.20;;;6.10;;
64678;SDS011;51094;53.864;27.676;2023-08-30T06:38:14;5.78;;;5.68;;
64678;SDS011;51094;53.864;27.676;2023-08-30T06:40:44;6.20;;;6.10;;
64678;SDS011;51094;53.864;27.676;2023-08-30T06:43:12;6.47;;;6.38;;
64678;SDS011;51094;53.864;27.676;2023-08-30T06:45:40;6.10;;;6.00;;
64678;SDS011;51094;53.864;27.676;2023-08-30T06:48:08;6.15;;;6.05;;
64678;SDS011;51094;53.864;27.676;2023-08-30T06:50:35;6.40;;;6.30;;
64678;SDS011;51094;53.864;27.676;2023-08-30T06:53:02;5.85;;;5.75;;
64678;SDS011;51094;53.864;27.676;2023-08-30T06:55:30;6.20;;;6.10;;
64678;SDS011;51094;53.864;27.676;2023-08-30T06:57:58;6.43;;;6.32;;
64678;SDS011;51094;53.864;27.676;2023-08-30T07:00:25;6.43;;;6.22;;
64678;SDS011;51094;53.864;27.676;2023-08-30T07:02:51;5.90;;;5.80;;
64678;SDS011;51094;53.864;27.676;2023-08-30T07:05:18;6.00;;;5.90;;
64678;SDS011;51094;53.864;27.676;2023-08-30T07:07:45;6.00;;;5.90;;
64678;SDS011;51094;53.864;27.676;2023-08-30T07:10:12;5.90;;;5.80;;
64678;SDS011;51094;53.864;27.676;2023-08-30T07:12:38;6.13;;;6.03;;
64678;SDS011;51094;53.864;27.676;2023-08-30T07:15:05;6.00;;;5.90;;
64678;SDS011;51094;53.864;27.676;2023-08-30T07:17:33;5.95;;;5.85;;
64678;SDS011;51094;53.864;27.676;2023-08-30T07:20:18;6.13;;;6.03;;
64678;SDS011;51094;53.864;27.676;2023-08-30T07:22:46;6.10;;;6.00;;
64678;SDS011;51094;53.864;27.676;2023-08-30T07:25:12;5.43;;;5.32;;
64678;SDS011;51094;53.864;27.676;2023-08-30T07:27:40;5.65;;;5.55;;
64678;SDS011;51094;53.864;27.676;2023-08-30T07:30:08;5.60;;;5.50;;
64678;SDS011;51094;53.864;27.676;2023-08-30T07:32:35;5.22;;;5.13;;
64678;SDS011;51094;53.864;27.676;2023-08-30T07:35:05;5.47;;;5.38;;
64678;SDS011;51094;53.864;27.676;2023-08-30T07:37:32;5.60;;;5.50;;
64678;SDS011;51094;53.864;27.676;2023-08-30T07:39:59;5.75;;;5.65;;
64678;SDS011;51094;53.864;27.676;2023-08-30T07:42:26;5.38;;;5.25;;
64678;SDS011;51094;53.864;27.676;2023-08-30T07:44:52;5.88;;;5.78;;
64678;SDS011;51094;53.864;27.676;2023-08-30T07:47:19;5.60;;;5.50;;
64678;SDS011;51094;53.864;27.676;2023-08-30T07:49:46;5.30;;;5.20;;
64678;SDS011;51094;53.864;27.676;2023-08-30T07:52:13;6.05;;;5.95;;
64678;SDS011;51094;53.864;27.676;2023-08-30T07:54:40;5.60;;;5.50;;
64678;SDS011;51094;53.864;27.676;2023-08-30T07:57:08;5.53;;;5.43;;
64678;SDS011;51094;53.864;27.676;2023-08-30T07:59:35;5.22;;;5.13;;
64678;SDS011;51094;53.864;27.676;2023-08-30T08:02:05;5.60;;;5.50;;
64678;SDS011;51094;53.864;27.676;2023-08-30T08:04:34;5.63;;;5.53;;
64678;SDS011;51094;53.864;27.676;2023-08-30T08:07:02;5.32;;;5.22;;
64678;SDS011;51094;53.864;27.676;2023-08-30T08:09:30;5.53;;;5.43;;
64678;SDS011;51094;53.864;27.676;2023-08-30T08:11:58;5.38;;;5.28;;
64678;SDS011;51094;53.864;27.676;2023-08-30T08:14:25;5.57;;;5.47;;
64678;SDS011;51094;53.864;27.676;2023-08-30T08:16:52;5.57;;;5.47;;
64678;SDS011;51094;53.864;27.676;2023-08-30T08:19:19;5.40;;;5.30;;
64678;SDS011;51094;53.864;27.676;2023-08-30T08:21:51;4.78;;;4.68;;
64678;SDS011;51094;53.864;27.676;2023-08-30T08:24:20;5.30;;;5.20;;
64678;SDS011;51094;53.864;27.676;2023-08-30T08:26:47;5.28;;;5.18;;
64678;SDS011;51094;53.864;27.676;2023-08-30T08:29:14;5.10;;;5.00;;
64678;SDS011;51094;53.864;27.676;2023-08-30T08:31:41;4.97;;;4.88;;
64678;SDS011;51094;53.864;27.676;2023-08-30T08:34:11;5.18;;;5.07;;
64678;SDS011;51094;53.864;27.676;2023-08-30T08:36:39;5.20;;;5.10;;
64678;SDS011;51094;53.864;27.676;2023-08-30T08:39:08;5.05;;;4.95;;
64678;SDS011;51094;53.864;27.676;2023-08-30T08:44:08;4.75;;;4.65;;
64678;SDS011;51094;53.864;27.676;2023-08-30T08:46:36;4.65;;;4.55;;
64678;SDS011;51094;53.864;27.676;2023-08-30T08:49:09;5.05;;;4.95;;
64678;SDS011;51094;53.864;27.676;2023-08-30T08:51:38;4.70;;;4.60;;
64678;SDS011;51094;53.864;27.676;2023-08-30T08:54:06;4.65;;;4.55;;
64678;SDS011;51094;53.864;27.676;2023-08-30T08:56:35;4.88;;;4.78;;
64678;SDS011;51094;53.864;27.676;2023-08-30T08:59:03;4.90;;;4.80;;
64678;SDS011;51094;53.864;27.676;2023-08-30T11:56:08;2.80;;;2.78;;
64678;SDS011;51094;53.864;27.676;2023-08-30T11:58:37;3.13;;;3.03;;
64678;SDS011;51094;53.864;27.676;2023-08-30T12:01:05;3.40;;;3.20;;
64678;SDS011;51094;53.864;27.676;2023-08-30T12:03:33;3.30;;;3.20;;
64678;SDS011;51094;53.864;27.676;2023-08-30T12:06:00;3.00;;;2.90;;
64678;SDS011;51094;53.864;27.676;2023-08-30T12:08:29;3.10;;;3.00;;
64678;SDS011;51094;53.864;27.676;2023-08-30T12:10:57;3.00;;;2.90;;
64678;SDS011;51094;53.864;27.676;2023-08-30T12:15:56;3.00;;;2.90;;
64678;SDS011;51094;53.864;27.676;2023-08-30T12:18:26;2.83;;;2.83;;
64678;SDS011;51094;53.864;27.676;2023-08-30T12:20:58;3.10;;;3.00;;
64678;SDS011;51094;53.864;27.676;2023-08-30T12:23:27;3.20;;;3.10;;
64678;SDS011;51094;53.864;27.676;2023-08-30T12:26:06;3.00;;;2.90;;
64678;SDS011;51094;53.864;27.676;2023-08-30T12:28:38;3.08;;;2.97;;
64678;SDS011;51094;53.864;27.676;2023-08-30T12:31:06;3.00;;;2.90;;
64678;SDS011;51094;53.864;27.676;2023-08-30T12:33:34;3.08;;;2.97;;
64678;SDS011;51094;53.864;27.676;2023-08-30T12:36:01;3.00;;;2.90;;
64678;SDS011;51094;53.864;27.676;2023-08-30T12:38:30;3.10;;;3.00;;
64678;SDS011;51094;53.864;27.676;2023-08-30T12:40:57;2.83;;;2.72;;
64678;SDS011;51094;53.864;27.676;2023-08-30T12:43:24;3.15;;;3.05;;
64678;SDS011;51094;53.864;27.676;2023-08-30T12:45:51;3.10;;;3.00;;
64678;SDS011;51094;53.864;27.676;2023-08-30T12:48:18;3.20;;;3.10;;
64678;SDS011;51094;53.864;27.676;2023-08-30T12:50:47;3.40;;;3.30;;
64678;SDS011;51094;53.864;27.676;2023-08-30T12:53:15;3.40;;;3.30;;
64678;SDS011;51094;53.864;27.676;2023-08-30T12:55:43;3.20;;;3.10;;
64678;SDS011;51094;53.864;27.676;2023-08-30T12:58:10;3.20;;;3.10;;
64678;SDS011;51094;53.864;27.676;2023-08-30T13:00:38;3.13;;;3.13;;
64678;SDS011;51094;53.864;27.676;2023-08-30T13:03:05;3.10;;;3.00;;
64678;SDS011;51094;53.864;27.676;2023-08-30T13:05:32;3.17;;;3.08;;
64678;SDS011;51094;53.864;27.676;2023-08-30T13:07:59;3.40;;;3.30;;
64678;SDS011;51094;53.864;27.676;2023-08-30T13:10:26;3.70;;;3.60;;
64678;SDS011;51094;53.864;27.676;2023-08-30T13:12:54;4.60;;;4.50;;
64678;SDS011;51094;53.864;27.676;2023-08-30T13:15:21;5.13;;;4.93;;
64678;SDS011;51094;53.864;27.676;2023-08-30T13:17:48;4.20;;;4.10;;
64678;SDS011;51094;53.864;27.676;2023-08-30T13:22:45;4.25;;;4.15;;
64678;SDS011;51094;53.864;27.676;2023-08-30T13:25:12;4.20;;;4.10;;
64678;SDS011;51094;53.864;27.676;2023-08-30T13:27:39;4.30;;;4.20;;
64678;SDS011;51094;53.864;27.676;2023-08-30T13:30:13;3.60;;;3.50;;
64678;SDS011;51094;53.864;27.676;2023-08-30T13:32:40;4.25;;;4.15;;
64678;SDS011;51094;53.864;27.676;2023-08-30T13:35:08;3.60;;;3.50;;
64678;SDS011;51094;53.864;27.676;2023-08-30T13:37:35;3.72;;;3.63;;
64678;SDS011;51094;53.864;27.676;2023-08-30T13:40:03;3.67;;;3.58;;
64678;SDS011;51094;53.864;27.676;2023-08-30T13:42:34;3.90;;;3.80;;
64678;SDS011;51094;53.864;27.676;2023-08-30T13:45:03;3.50;;;3.40;;
64678;SDS011;51094;53.864;27.676;2023-08-30T13:47:33;3.55;;;3.45;;
64678;SDS011;51094;53.864;27.676;2023-08-30T13:50:01;3.50;;;3.40;;
64678;SDS011;51094;53.864;27.676;2023-08-30T13:52:30;3.33;;;3.22;;
64678;SDS011;51094;53.864;27.676;2023-08-30T13:54:57;3.90;;;3.70;;
64678;SDS011;51094;53.864;27.676;2023-08-30T13:57:24;3.95;;;3.85;;
64678;SDS011;51094;53.864;27.676;2023-08-30T13:59:51;3.45;;;3.40;;
64678;SDS011;51094;53.864;27.676;2023-08-30T14:02:18;3.33;;;3.33;;
64678;SDS011;51094;53.864;27.676;2023-08-30T14:04:47;3.53;;;3.42;;
64678;SDS011;51094;53.864;27.676;2023-08-30T14:07:14;3.65;;;3.55;;
64678;SDS011;51094;53.864;27.676;2023-08-30T14:09:41;3.80;;;3.70;;
64678;SDS011;51094;53.864;27.676;2023-08-30T14:12:08;3.60;;;3.50;;
64678;SDS011;51094;53.864;27.676;2023-08-30T14:14:35;3.80;;;3.70;;
64678;SDS011;51094;53.864;27.676;2023-08-30T14:17:02;3.47;;;3.38;;
64678;SDS011;51094;53.864;27.676;2023-08-30T14:19:29;3.72;;;3.63;;
64678;SDS011;51094;53.864;27.676;2023-08-30T14:21:56;3.75;;;3.65;;
64678;SDS011;51094;53.864;27.676;2023-08-30T14:24:24;3.88;;;3.78;;
64678;SDS011;51094;53.864;27.676;2023-08-30T14:26:51;3.90;;;3.80;;
64678;SDS011;51094;53.864;27.676;2023-08-30T14:29:19;4.22;;;4.13;;
64678;SDS011;51094;53.864;27.676;2023-08-30T14:31:48;3.50;;;3.50;;
64678;SDS011;51094;53.864;27.676;2023-08-30T14:34:15;3.92;;;3.83;;
64678;SDS011;51094;53.864;27.676;2023-08-30T14:36:42;4.07;;;3.97;;
64678;SDS011;51094;53.864;27.676;2023-08-30T14:39:10;3.72;;;3.63;;
64678;SDS011;51094;53.864;27.676;2023-08-30T14:41:37;4.00;;;3.90;;
64678;SDS011;51094;53.864;27.676;2023-08-30T14:44:04;3.67;;;3.58;;
64678;SDS011;51094;53.864;27.676;2023-08-30T14:46:31;3.70;;;3.60;;
64678;SDS011;51094;53.864;27.676;2023-08-30T14:48:58;3.80;;;3.70;;
64678;SDS011;51094;53.864;27.676;2023-08-30T14:51:25;4.07;;;3.97;;
64678;SDS011;51094;53.864;27.676;2023-08-30T14:53:53;3.90;;;3.80;;
64678;SDS011;51094;53.864;27.676;2023-08-30T14:56:20;3.90;;;3.80;;
64678;SDS011;51094;53.864;27.676;2023-08-30T14:58:47;3.70;;;3.60;;
64678;SDS011;51094;53.864;27.676;2023-08-30T15:01:16;4.18;;;4.07;;
64678;SDS011;51094;53.864;27.676;2023-08-30T15:03:43;4.03;;;3.92;;
64678;SDS011;51094;53.864;27.676;2023-08-30T15:06:10;4.25;;;4.07;;
64678;SDS011;51094;53.864;27.676;2023-08-30T15:08:40;4.07;;;3.97;;
64678;SDS011;51094;53.864;27.676;2023-08-30T15:11:07;4.15;;;4.05;;
64678;SDS011;51094;53.864;27.676;2023-08-30T15:13:35;4.38;;;4.28;;
64678;SDS011;51094;53.864;27.676;2023-08-30T15:16:04;4.38;;;4.28;;
64678;SDS011;51094;53.864;27.676;2023-08-30T15:18:31;4.13;;;4.03;;
64678;SDS011;51094;53.864;27.676;2023-08-30T15:20:58;4.05;;;3.95;;
64678;SDS011;51094;53.864;27.676;2023-08-30T15:23:26;4.22;;;4.13;;
64678;SDS011;51094;53.864;27.676;2023-08-30T15:25:53;4.30;;;4.20;;
64678;SDS011;51094;53.864;27.676;2023-08-30T15:28:21;4.57;;;4.47;;
64678;SDS011;51094;53.864;27.676;2023-08-30T15:30:48;4.40;;;4.30;;
64678;SDS011;51094;53.864;27.676;2023-08-30T15:33:17;4.93;;;4.82;;
64678;SDS011;51094;53.864;27.676;2023-08-30T15:35:47;4.68;;;4.57;;
64678;SDS011;51094;53.864;27.676;2023-08-30T15:38:14;4.72;;;4.53;;
64678;SDS011;51094;53.864;27.676;2023-08-30T15:40:42;4.93;;;4.73;;
64678;SDS011;51094;53.864;27.676;2023-08-30T15:43:10;4.63;;;4.50;;
64678;SDS011;51094;53.864;27.676;2023-08-30T15:45:38;4.75;;;4.65;;
64678;SDS011;51094;53.864;27.676;2023-08-30T15:48:05;4.40;;;4.30;;
64678;SDS011;51094;53.864;27.676;2023-08-30T15:50:33;5.72;;;3.90;;
64678;SDS011;51094;53.864;27.676;2023-08-30T15:53:00;4.45;;;2.75;;
64678;SDS011;51094;53.864;27.676;2023-08-30T15:55:28;5.22;;;2.97;;
64678;SDS011;51094;53.864;27.676;2023-08-30T15:57:57;3.13;;;2.10;;
64678;SDS011;51094;53.864;27.676;2023-08-30T16:00:25;2.72;;;2.03;;
64678;SDS011;51094;53.864;27.676;2023-08-30T16:02:53;2.65;;;2.00;;
64678;SDS011;51094;53.864;27.676;2023-08-30T16:05:21;1.98;;;1.85;;
64678;SDS011;51094;53.864;27.676;2023-08-30T16:07:49;1.88;;;1.77;;
64678;SDS011;51094;53.864;27.676;2023-08-30T16:10:16;1.90;;;1.80;;
64678;SDS011;51094;53.864;27.676;2023-08-30T16:12:43;1.88;;;1.63;;
64678;SDS011;51094;53.864;27.676;2023-08-30T16:15:10;2.00;;;1.85;;
64678;SDS011;51094;53.864;27.676;2023-08-30T16:17:39;2.00;;;1.90;;
64678;SDS011;51094;53.864;27.676;2023-08-30T16:20:08;1.90;;;1.80;;
64678;SDS011;51094;53.864;27.676;2023-08-30T16:22:36;1.90;;;1.80;;
64678;SDS011;51094;53.864;27.676;2023-08-30T16:25:04;1.98;;;1.88;;
64678;SDS011;51094;53.864;27.676;2023-08-30T16:27:32;1.60;;;1.50;;
64678;SDS011;51094;53.864;27.676;2023-08-30T16:30:10;1.58;;;1.48;;
64678;SDS011;51094;53.864;27.676;2023-08-30T16:32:39;1.50;;;1.40;;
64678;SDS011;51094;53.864;27.676;2023-08-30T16:35:06;1.50;;;1.40;;
64678;SDS011;51094;53.864;27.676;2023-08-30T16:37:34;1.10;;;1.10;;
64678;SDS011;51094;53.864;27.676;2023-08-30T16:40:03;1.15;;;1.15;;
64678;SDS011;51094;53.864;27.676;2023-08-30T16:42:31;1.58;;;1.58;;
64678;SDS011;51094;53.864;27.676;2023-08-30T16:44:58;1.35;;;1.30;;
64678;SDS011;51094;53.864;27.676;2023-08-30T16:47:26;0.90;;;0.90;;
64678;SDS011;51094;53.864;27.676;2023-08-30T16:49:54;1.00;;;1.00;;
64678;SDS011;51094;53.864;27.676;2023-08-30T16:52:21;1.10;;;1.10;;
64678;SDS011;51094;53.864;27.676;2023-08-30T16:54:49;0.90;;;0.90;;
64678;SDS011;51094;53.864;27.676;2023-08-30T16:57:16;0.90;;;0.90;;
64678;SDS011;51094;53.864;27.676;2023-08-30T16:59:45;0.90;;;0.90;;
64678;SDS011;51094;53.864;27.676;2023-08-30T17:02:13;0.80;;;0.80;;
64678;SDS011;51094;53.864;27.676;2023-08-30T17:04:42;0.95;;;0.95;;
64678;SDS011;51094;53.864;27.676;2023-08-30T17:07:09;1.00;;;1.00;;
64678;SDS011;51094;53.864;27.676;2023-08-30T17:09:37;1.08;;;1.08;;
64678;SDS011;51094;53.864;27.676;2023-08-30T17:12:06;1.00;;;1.00;;
64678;SDS011;51094;53.864;27.676;2023-08-30T17:14:33;1.05;;;1.05;;
64678;SDS011;51094;53.864;27.676;2023-08-30T17:17:01;1.00;;;1.00;;
64678;SDS011;51094;53.864;27.676;2023-08-30T17:19:29;1.40;;;1.40;;
64678;SDS011;51094;53.864;27.676;2023-08-30T17:21:56;1.00;;;1.00;;
64678;SDS011;51094;53.864;27.676;2023-08-30T17:24:23;1.13;;;1.13;;
64678;SDS011;51094;53.864;27.676;2023-08-30T17:26:51;0.95;;;0.95;;
64678;SDS011;51094;53.864;27.676;2023-08-30T17:29:18;1.10;;;1.10;;
64678;SDS011;51094;53.864;27.676;2023-08-30T17:31:46;1.20;;;1.20;;
64678;SDS011;51094;53.864;27.676;2023-08-30T17:36:44;1.23;;;1.23;;
64678;SDS011;51094;53.864;27.676;2023-08-30T17:39:17;1.40;;;1.40;;
64678;SDS011;51094;53.864;27.676;2023-08-30T17:41:46;1.65;;;1.65;;
64678;SDS011;51094;53.864;27.676;2023-08-30T17:44:15;1.50;;;1.50;;
64678;SDS011;51094;53.864;27.676;2023-08-30T17:46:44;1.98;;;1.88;;
64678;SDS011;51094;53.864;27.676;2023-08-30T17:49:12;2.23;;;2.17;;
64678;SDS011;51094;53.864;27.676;2023-08-30T17:51:48;2.22;;;2.13;;
64678;SDS011;51094;53.864;27.676;2023-08-30T17:54:17;1.90;;;1.90;;
64678;SDS011;51094;53.864;27.676;2023-08-30T17:56:46;1.80;;;1.80;;
64678;SDS011;51094;53.864;27.676;2023-08-30T17:59:14;1.70;;;1.70;;
64678;SDS011;51094;53.864;27.676;2023-08-30T18:01:45;1.63;;;1.63;;